createdAt,value
2018-12-08T00:01:17.339Z,98353.95
2018-12-08T00:03:47.047Z,98342.16
2018-12-08T00:06:16.525Z,98340.52
2018-12-08T00:08:45.626Z,98340.39
2018-12-08T00:11:14.706Z,98337.73
2018-12-08T00:13:44.142Z,98326.73
2018-12-08T00:16:13.194Z,98324.06
2018-12-08T00:18:42.202Z,98317.68
2018-12-08T00:21:11.709Z,98318.26
2018-12-08T00:23:41.186Z,98317.33
2018-12-08T00:26:11.156Z,98310.55
2018-12-08T00:28:40.437Z,98306.99
2018-12-08T00:31:20.937Z,98292.23
2018-12-08T00:33:49.990Z,98292.09
2018-12-08T00:36:19.085Z,98287.13
2018-12-08T00:38:48.177Z,98273.91
2018-12-08T00:41:17.321Z,98280.06
2018-12-08T00:43:46.370Z,98268.72
2018-12-08T00:46:15.542Z,98276.34
2018-12-08T00:48:44.680Z,98262.36
2018-12-08T00:51:13.937Z,98258.51
2018-12-08T00:53:43.037Z,98256.80
2018-12-08T00:56:12.457Z,98247.98
2018-12-08T00:58:41.454Z,98249.39
2018-12-08T01:01:10.646Z,98250.45
2018-12-08T01:03:40.790Z,98249.36
2018-12-08T01:06:09.835Z,98254.69
2018-12-08T01:08:38.849Z,98252.53
2018-12-08T01:11:07.898Z,98253.13
2018-12-08T01:13:37.748Z,98237.29
2018-12-08T01:16:06.857Z,98223.52
2018-12-08T01:18:36.230Z,98209.07
2018-12-08T01:21:05.366Z,98204.65
2018-12-08T01:23:34.511Z,98208.36
2018-12-08T01:26:04.365Z,98220.15
2018-12-08T01:28:33.442Z,98217.25
2018-12-08T01:31:02.527Z,98215.00
2018-12-08T01:33:32.183Z,98216.93
2018-12-08T01:36:01.209Z,98219.81
2018-12-08T01:38:30.385Z,98217.74
2018-12-08T01:40:59.752Z,98210.56
2018-12-08T01:43:28.845Z,98102.23
2018-12-08T01:45:57.957Z,98212.28
2018-12-08T01:48:27.333Z,98184.42
2018-12-08T01:50:56.453Z,98182.14
2018-12-08T01:53:25.521Z,98181.13
2018-12-08T01:55:55.043Z,98176.36
2018-12-08T01:58:24.121Z,98162.69
2018-12-08T02:00:53.769Z,98162.97
2018-12-08T02:03:23.660Z,98160.09
2018-12-08T02:05:54.037Z,98156.17
2018-12-08T02:08:23.053Z,98152.88
2018-12-08T02:10:54.433Z,98153.64
2018-12-08T02:13:23.513Z,98159.48
2018-12-08T02:15:52.609Z,98160.54
2018-12-08T02:18:22.026Z,98162.55
2018-12-08T02:20:51.093Z,98147.19
2018-12-08T02:23:20.197Z,98148.34
2018-12-08T02:25:49.609Z,98128.96
2018-12-08T02:28:18.701Z,98120.92
2018-12-08T02:30:47.709Z,98116.43
2018-12-08T02:33:17.101Z,98110.06
2018-12-08T02:35:46.190Z,98108.30
2018-12-08T02:38:15.388Z,98112.15
2018-12-08T02:40:45.317Z,98100.71
2018-12-08T02:43:14.414Z,98094.31
2018-12-08T02:45:44.618Z,98096.78
2018-12-08T02:48:14.037Z,98090.55
2018-12-08T02:50:43.061Z,98087.59
2018-12-08T02:53:12.505Z,98081.89
2018-12-08T02:55:41.925Z,98080.55
2018-12-08T02:58:11.154Z,98079.02
2018-12-08T03:00:40.154Z,98068.91
2018-12-08T03:03:11.374Z,98062.25
2018-12-08T03:05:40.444Z,98057.35
2018-12-08T03:08:09.648Z,98054.25
2018-12-08T03:10:39.157Z,98040.63
2018-12-08T03:13:08.385Z,98032.72
2018-12-08T03:15:37.453Z,98023.25
2018-12-08T03:18:06.859Z,98015.66
2018-12-08T03:20:35.944Z,98015.16
2018-12-08T03:23:05.253Z,98016.59
2018-12-08T03:25:34.750Z,98012.93
2018-12-08T03:28:04.110Z,98014.75
2018-12-08T03:30:33.866Z,98015.00
2018-12-08T03:33:03.590Z,98015.80
2018-12-08T03:35:32.617Z,98017.03
2018-12-08T03:38:01.654Z,98015.25
2018-12-08T03:40:30.806Z,98000.94
2018-12-08T03:42:59.910Z,97996.19
2018-12-08T03:45:28.962Z,98001.58
2018-12-08T03:47:58.030Z,97995.89
2018-12-08T03:50:27.037Z,98007.03
2018-12-08T03:52:56.117Z,98005.84
2018-12-08T03:55:25.185Z,98004.59
2018-12-08T03:57:54.313Z,98000.58
2018-12-08T04:00:23.314Z,97996.31
2018-12-08T04:02:52.464Z,98000.52
2018-12-08T04:05:21.597Z,98004.02
2018-12-08T04:07:50.790Z,97998.34
2018-12-08T04:10:20.062Z,97989.35
2018-12-08T04:12:49.083Z,97987.03
2018-12-08T04:15:18.084Z,97987.38
2018-12-08T04:17:47.602Z,97980.84
2018-12-08T04:20:16.665Z,97980.00
2018-12-08T04:22:45.684Z,97983.24
2018-12-08T04:25:16.227Z,97979.66
2018-12-08T04:27:45.421Z,97980.38
2018-12-08T04:30:14.597Z,97979.16
2018-12-08T04:32:44.028Z,97976.03
2018-12-08T04:35:13.117Z,97968.06
2018-12-08T04:37:42.377Z,97967.42
2018-12-08T04:40:12.009Z,97961.73
2018-12-08T04:42:41.181Z,97963.45
2018-12-08T04:45:10.762Z,97961.78
2018-12-08T04:47:40.524Z,97959.30
2018-12-08T04:50:09.733Z,97953.13
2018-12-08T04:52:38.807Z,97950.18
2018-12-08T04:55:08.421Z,97944.53
2018-12-08T04:57:37.510Z,97941.93
2018-12-08T05:00:07.441Z,97938.92
2018-12-08T05:02:36.942Z,97939.38
2018-12-08T05:05:06.254Z,97944.29
2018-12-08T05:07:35.281Z,97934.98
2018-12-08T05:10:05.667Z,97934.67
2018-12-08T05:12:34.761Z,97933.33
2018-12-08T05:15:05.537Z,97928.64
2018-12-08T05:17:34.781Z,97926.94
2018-12-08T05:20:04.401Z,97921.59
2018-12-08T05:22:33.607Z,97920.64
2018-12-08T05:25:02.678Z,97924.86
2018-12-08T05:27:31.877Z,97915.17
2018-12-08T05:30:01.312Z,97914.83
2018-12-08T05:32:30.405Z,97916.66
2018-12-08T05:34:59.673Z,97911.98
2018-12-08T05:37:29.093Z,97910.14
2018-12-08T05:39:58.191Z,97908.81
2018-12-08T05:42:27.249Z,97912.13
2018-12-08T05:44:56.673Z,97907.84
2018-12-08T05:47:25.693Z,97907.16
2018-12-08T05:49:55.317Z,97901.27
2018-12-08T05:52:24.411Z,97912.44
2018-12-08T05:54:53.457Z,97905.23
2018-12-08T05:57:22.621Z,97898.31
2018-12-08T05:59:52.074Z,97903.63
2018-12-08T06:02:22.125Z,97916.13
2018-12-08T06:04:51.155Z,97924.20
2018-12-08T06:07:20.597Z,97935.75
2018-12-08T06:09:50.228Z,97933.55
2018-12-08T06:12:19.273Z,97942.80
2018-12-08T06:14:48.691Z,97946.95
2018-12-08T06:17:18.036Z,97943.11
2018-12-08T06:19:47.065Z,97946.43
2018-12-08T06:22:16.506Z,97942.73
2018-12-08T06:24:45.609Z,97946.77
2018-12-08T06:27:51.506Z,97954.25
2018-12-08T06:30:20.521Z,97950.84
2018-12-08T06:32:49.621Z,97954.54
2018-12-08T06:35:19.136Z,97964.00
2018-12-08T06:37:48.868Z,97963.01
2018-12-08T06:40:18.900Z,97970.33
2018-12-08T06:42:49.137Z,97966.02
2018-12-08T06:45:18.374Z,97958.94
2018-12-08T06:47:47.796Z,97968.97
2018-12-08T06:50:16.872Z,97973.13
2018-12-08T06:52:45.949Z,97981.63
2018-12-08T06:55:15.078Z,97979.83
2018-12-08T06:57:44.170Z,97979.98
2018-12-08T07:00:13.387Z,97977.97
2018-12-08T07:02:42.426Z,97978.00
2018-12-08T07:05:11.457Z,97978.66
2018-12-08T07:07:40.889Z,97977.66
2018-12-08T07:10:10.458Z,97987.69
2018-12-08T07:12:39.555Z,97985.86
2018-12-08T07:15:09.014Z,97981.81
2018-12-08T07:17:38.528Z,97992.99
2018-12-08T07:20:07.754Z,97993.77
2018-12-08T07:22:37.665Z,97987.09
2018-12-08T07:25:07.403Z,98001.27
2018-12-08T07:27:36.584Z,98000.44
2018-12-08T07:30:08.399Z,98005.93
2018-12-08T07:32:38.917Z,98011.27
2018-12-08T07:35:09.797Z,98008.25
2018-12-08T07:37:38.819Z,98014.01
2018-12-08T07:40:09.365Z,98019.34
2018-12-08T07:42:38.840Z,98025.14
2018-12-08T07:45:08.456Z,98004.36
2018-12-08T07:47:38.920Z,98005.39
2018-12-08T07:50:09.598Z,98016.94
2018-12-08T07:52:38.965Z,98013.53
2018-12-08T07:55:10.845Z,98005.04
2018-12-08T07:57:40.989Z,98004.39
2018-12-08T08:00:12.533Z,98019.11
2018-12-08T08:02:41.933Z,98024.89
2018-12-08T08:05:11.161Z,98024.16
2018-12-08T08:07:40.229Z,98021.49
2018-12-08T08:10:11.521Z,98021.59
2018-12-08T08:12:40.586Z,98021.45
2018-12-08T08:15:10.610Z,98006.93
2018-12-08T08:17:39.689Z,98005.25
2018-12-08T08:20:10.929Z,98006.44
2018-12-08T08:22:40.045Z,98010.63
2018-12-08T08:25:10.961Z,98017.36
2018-12-08T08:27:40.191Z,98029.41
2018-12-08T08:30:11.421Z,98032.12
2018-12-08T08:32:40.473Z,98026.63
2018-12-08T08:35:09.746Z,98032.67
2018-12-08T08:37:40.278Z,98032.97
2018-12-08T08:40:10.999Z,98032.37
2018-12-08T08:42:40.106Z,98029.20
2018-12-08T08:45:10.067Z,98024.09
2018-12-08T08:47:39.278Z,97939.89
2018-12-08T08:50:10.933Z,98021.31
2018-12-08T08:52:39.934Z,98023.33
2018-12-08T08:55:09.035Z,98026.69
2018-12-08T08:57:38.129Z,98014.64
2018-12-08T09:00:09.420Z,98014.36
2018-12-08T09:02:39.615Z,98034.30
2018-12-08T09:05:08.905Z,98033.80
2018-12-08T09:07:39.169Z,98025.02
2018-12-08T09:10:11.208Z,98029.08
2018-12-08T09:12:40.261Z,98030.39
2018-12-08T09:15:09.757Z,98035.48
2018-12-08T09:17:39.065Z,98026.87
2018-12-08T09:20:10.713Z,98031.76
2018-12-08T09:22:40.333Z,98024.79
2018-12-08T09:25:10.747Z,98029.78
2018-12-08T09:27:40.584Z,98023.27
2018-12-08T09:30:11.330Z,98020.94
2018-12-08T09:32:41.431Z,98018.73
2018-12-08T09:35:11.207Z,98018.13
2018-12-08T09:37:40.457Z,98031.66
2018-12-08T09:40:09.975Z,98027.89
2018-12-08T09:42:39.962Z,98020.27
2018-12-08T09:45:09.105Z,98022.86
2018-12-08T09:47:40.181Z,98020.72
2018-12-08T09:50:09.419Z,98029.38
2018-12-08T09:52:38.461Z,98038.27
2018-12-08T09:55:08.161Z,98039.06
2018-12-08T09:57:38.606Z,98038.19
2018-12-08T10:00:08.417Z,98044.47
2018-12-08T10:02:38.526Z,98032.72
2018-12-08T10:05:07.837Z,98032.76
2018-12-08T10:07:37.404Z,98032.11
2018-12-08T10:10:08.070Z,98034.13
2018-12-08T10:12:37.586Z,98034.77
2018-12-08T10:15:06.614Z,98030.38
2018-12-08T10:17:35.756Z,98037.02
2018-12-08T10:20:05.210Z,98048.30
2018-12-08T10:22:34.229Z,98040.60
2018-12-08T10:25:03.589Z,98041.52
2018-12-08T10:27:33.014Z,98045.70
2018-12-08T10:30:02.069Z,98045.74
2018-12-08T10:32:31.161Z,98034.23
2018-12-08T10:35:00.389Z,98027.04
2018-12-08T10:37:29.376Z,98033.90
2018-12-08T10:39:58.455Z,98031.12
2018-12-08T10:42:27.618Z,98031.66
2018-12-08T10:44:56.990Z,98030.33
2018-12-08T10:47:26.037Z,98025.64
2018-12-08T10:49:58.588Z,98026.63
2018-12-08T10:52:28.740Z,98030.93
2018-12-08T10:55:00.105Z,98037.80
2018-12-08T10:57:29.989Z,98028.30
2018-12-08T10:59:59.093Z,98028.61
2018-12-08T11:02:33.960Z,98026.81
2018-12-08T11:05:03.102Z,98035.81
2018-12-08T11:07:32.138Z,98032.76
2018-12-08T11:10:01.234Z,98033.14
2018-12-08T11:12:30.501Z,98033.75
2018-12-08T11:15:00.818Z,98030.78
2018-12-08T11:17:30.153Z,98027.42
2018-12-08T11:19:59.789Z,98038.48
2018-12-08T11:22:28.925Z,98033.98
2018-12-08T11:24:58.053Z,98027.47
2018-12-08T11:27:27.164Z,98030.78
2018-12-08T11:29:56.221Z,98030.17
2018-12-08T11:32:25.337Z,98030.06
2018-12-08T11:34:54.406Z,98023.69
2018-12-08T11:37:23.518Z,98017.36
2018-12-08T11:39:53.027Z,98017.55
2018-12-08T11:42:22.137Z,98015.76
2018-12-08T11:44:51.365Z,98012.16
2018-12-08T11:47:20.438Z,98012.84
2018-12-08T11:49:49.505Z,98020.25
2018-12-08T11:52:18.517Z,98020.66
2018-12-08T11:54:47.816Z,98026.64
2018-12-08T11:57:16.821Z,98025.00
2018-12-08T11:59:45.965Z,98026.67
2018-12-08T12:02:16.649Z,98027.20
2018-12-08T12:04:46.116Z,98035.72
2018-12-08T12:07:15.851Z,98035.34
2018-12-08T12:09:44.993Z,98039.36
2018-12-08T12:12:14.339Z,98033.76
2018-12-08T12:14:49.622Z,98031.81
2018-12-08T12:17:18.643Z,98024.45
2018-12-08T12:19:48.633Z,98021.13
2018-12-08T12:22:18.195Z,98026.70
2018-12-08T12:24:47.275Z,98023.05
2018-12-08T12:27:16.369Z,98024.58
2018-12-08T12:29:45.559Z,98023.28
2018-12-08T12:32:14.834Z,98018.44
2018-12-08T12:34:43.841Z,98021.83
2018-12-08T12:37:12.974Z,98026.59
2018-12-08T12:39:42.038Z,98025.30
2018-12-08T12:42:11.358Z,98025.38
2018-12-08T12:44:40.461Z,98022.05
2018-12-08T12:47:09.544Z,98020.27
2018-12-08T12:49:38.737Z,98017.52
2018-12-08T12:52:07.971Z,98019.20
2018-12-08T12:54:36.967Z,98006.69
2018-12-08T12:57:06.023Z,98010.16
2018-12-08T12:59:35.142Z,98004.48
2018-12-08T13:02:04.155Z,98003.94
2018-12-08T13:04:33.202Z,97998.67
2018-12-08T13:07:02.433Z,98006.88
2018-12-08T13:09:32.113Z,98007.33
2018-12-08T13:12:01.651Z,98004.36
2018-12-08T13:14:32.878Z,98005.77
2018-12-08T13:17:02.030Z,98005.62
2018-12-08T13:19:31.144Z,98008.20
2018-12-08T13:22:00.245Z,98003.52
2018-12-08T13:24:32.012Z,98003.47
2018-12-08T13:27:01.645Z,98006.52
2018-12-08T13:29:30.985Z,98000.16
2018-12-08T13:32:00.002Z,98004.84
2018-12-08T13:34:30.081Z,98002.78
2018-12-08T13:36:59.117Z,98001.05
2018-12-08T13:39:28.157Z,97996.41
2018-12-08T13:41:57.524Z,97996.86
2018-12-08T13:44:36.518Z,97991.38
2018-12-08T13:47:05.697Z,97992.96
2018-12-08T13:49:35.893Z,97988.45
2018-12-08T13:52:05.528Z,97988.21
2018-12-08T13:54:47.069Z,97989.44
2018-12-08T13:57:16.572Z,97982.86
2018-12-08T13:59:53.097Z,97982.06
2018-12-08T14:02:22.695Z,97984.06
2018-12-08T14:04:51.882Z,97977.88
2018-12-08T14:07:20.930Z,97975.50
2018-12-08T14:09:50.337Z,97978.17
2018-12-08T14:12:19.501Z,97969.19
2018-12-08T14:14:48.617Z,97972.80
2018-12-08T14:17:17.785Z,97968.05
2018-12-08T14:19:46.826Z,97967.55
2018-12-08T14:22:16.024Z,97963.33
2018-12-08T14:24:45.057Z,97959.40
2018-12-08T14:27:14.110Z,97959.80
2018-12-08T14:29:43.211Z,97957.78
2018-12-08T14:32:12.319Z,97959.72
2018-12-08T14:34:41.381Z,97954.29
2018-12-08T14:37:10.404Z,97952.59
2018-12-08T14:39:39.494Z,97948.77
2018-12-08T14:42:08.576Z,97943.09
2018-12-08T14:44:37.857Z,97945.63
2018-12-08T14:47:07.019Z,97942.71
2018-12-08T14:49:36.064Z,97940.64
2018-12-08T14:52:05.149Z,97935.70
2018-12-08T14:54:34.394Z,97927.75
2018-12-08T14:57:04.609Z,97931.31
2018-12-08T14:59:33.678Z,97926.37
2018-12-08T15:02:02.798Z,97923.55
2018-12-08T15:04:31.870Z,97916.20
2018-12-08T15:07:01.029Z,97917.59
2018-12-08T15:09:31.017Z,97915.22
2018-12-08T15:12:00.038Z,97905.06
2018-12-08T15:14:29.157Z,97907.33
2018-12-08T15:16:58.192Z,97910.69
2018-12-08T15:19:27.254Z,97908.22
2018-12-08T15:21:56.433Z,97905.80
2018-12-08T15:24:25.581Z,97899.73
2018-12-08T15:26:54.762Z,97892.23
2018-12-08T15:29:23.837Z,97884.69
2018-12-08T15:31:53.377Z,97890.75
2018-12-08T15:34:22.391Z,97888.23
2018-12-08T15:36:51.631Z,97886.11
2018-12-08T15:39:20.773Z,97886.15
2018-12-08T15:41:50.056Z,97886.36
2018-12-08T15:44:19.269Z,97887.50
2018-12-08T15:46:48.666Z,97886.36
2018-12-08T15:49:17.970Z,97890.59
2018-12-08T15:51:47.126Z,97888.37
2018-12-08T15:54:16.545Z,97880.48
2018-12-08T15:56:45.730Z,97877.33
2018-12-08T15:59:15.449Z,97880.91
2018-12-08T16:01:44.589Z,97876.48
2018-12-08T16:04:13.698Z,97875.06
2018-12-08T16:06:42.827Z,97870.36
2018-12-08T16:09:12.057Z,97863.24
2018-12-08T16:11:41.139Z,97860.70
2018-12-08T16:14:10.230Z,97860.31
2018-12-08T16:16:39.562Z,97859.63
2018-12-08T16:19:08.591Z,97858.34
2018-12-08T16:21:37.730Z,97856.48
2018-12-08T16:24:06.805Z,97850.38
2018-12-08T16:26:35.958Z,97843.81
2018-12-08T16:29:05.098Z,97839.25
2018-12-08T16:31:34.713Z,97831.13
2018-12-08T16:34:03.913Z,97826.63
2018-12-08T16:36:32.945Z,97822.45
2018-12-08T16:39:02.108Z,97814.09
2018-12-08T16:41:32.744Z,97812.73
2018-12-08T16:44:02.233Z,97819.09
2018-12-08T16:46:31.641Z,97809.44
2018-12-08T16:49:01.191Z,97807.95
2018-12-08T16:51:31.374Z,97803.36
2018-12-08T16:54:00.580Z,97808.84
2018-12-08T16:56:30.694Z,97806.91
2018-12-08T16:59:00.202Z,97801.88
2018-12-08T17:01:29.370Z,97794.05
2018-12-08T17:03:58.590Z,97796.95
2018-12-08T17:06:27.678Z,97791.09
2018-12-08T17:08:57.620Z,97789.36
2018-12-08T17:11:26.610Z,97788.92
2018-12-08T17:13:56.193Z,97779.81
2018-12-08T17:16:25.273Z,97778.14
2018-12-08T17:18:54.578Z,97768.67
2018-12-08T17:21:23.703Z,97766.00
2018-12-08T17:23:52.970Z,97765.11
2018-12-08T17:26:22.157Z,97763.03
2018-12-08T17:28:51.566Z,97765.61
2018-12-08T17:31:20.623Z,97760.03
2018-12-08T17:33:49.709Z,97752.22
2018-12-08T17:36:18.868Z,97752.50
2018-12-08T17:38:51.001Z,97747.03
2018-12-08T17:41:20.165Z,97741.99
2018-12-08T17:43:49.210Z,97733.08
2018-12-08T17:46:18.501Z,97731.01
2018-12-08T17:48:48.437Z,97719.42
2018-12-08T17:51:17.514Z,97716.91
2018-12-08T17:53:46.517Z,97711.05
2018-12-08T17:56:16.157Z,97712.64
2018-12-08T17:58:45.942Z,97708.04
2018-12-08T18:01:16.060Z,97701.09
2018-12-08T18:03:45.177Z,97696.83
2018-12-08T18:06:14.313Z,97698.06
2018-12-08T18:08:43.633Z,97690.28
2018-12-08T18:11:13.257Z,97682.04
2018-12-08T18:13:42.393Z,97678.21
2018-12-08T18:16:11.618Z,97678.13
2018-12-08T18:18:41.705Z,97674.33
2018-12-08T18:21:11.437Z,97674.56
2018-12-08T18:23:40.545Z,97663.03
2018-12-08T18:26:10.272Z,97668.16
2018-12-08T18:28:39.941Z,97668.80
2018-12-08T18:31:09.153Z,97656.13
2018-12-08T18:33:38.229Z,97653.28
2018-12-08T18:36:07.356Z,97652.05
2018-12-08T18:38:36.919Z,97648.49
2018-12-08T18:41:07.325Z,97646.48
2018-12-08T18:43:36.498Z,97645.00
2018-12-08T18:46:06.450Z,97636.11
2018-12-08T18:48:35.642Z,97641.55
2018-12-08T18:51:06.498Z,97638.98
2018-12-08T18:53:36.507Z,97641.60
2018-12-08T18:56:05.600Z,97628.80
2018-12-08T18:58:35.332Z,97629.44
2018-12-08T19:01:04.504Z,97628.34
2018-12-08T19:03:34.966Z,97626.78
2018-12-08T19:06:05.546Z,97626.67
2018-12-08T19:08:35.142Z,97620.02
2018-12-08T19:11:06.330Z,97613.44
2018-12-08T19:13:35.407Z,97601.91
2018-12-08T19:16:04.569Z,97597.58
2018-12-08T19:18:33.693Z,97595.50
2018-12-08T19:21:03.320Z,97593.59
2018-12-08T19:23:34.041Z,97594.62
2018-12-08T19:26:04.389Z,97583.67
2018-12-08T19:28:33.641Z,97590.48
2018-12-08T19:31:02.723Z,97588.35
2018-12-08T19:33:32.162Z,97586.83
2018-12-08T19:36:02.741Z,97589.59
2018-12-08T19:38:33.115Z,97583.03
2018-12-08T19:41:03.952Z,97578.93
2018-12-08T19:43:33.773Z,97578.20
2018-12-08T19:46:04.497Z,97575.82
2018-12-08T19:48:35.672Z,97570.34
2018-12-08T19:51:05.538Z,97567.19
2018-12-08T19:53:36.088Z,97571.75
2018-12-08T19:56:05.315Z,97566.05
2018-12-08T19:58:34.462Z,97558.02
2018-12-08T20:01:05.010Z,97557.80
2018-12-08T20:03:34.105Z,97553.96
2018-12-08T20:06:03.098Z,97548.98
2018-12-08T20:08:32.789Z,97551.64
2018-12-08T20:11:01.998Z,97551.00
2018-12-08T20:13:31.072Z,97548.11
2018-12-08T20:16:00.469Z,97544.20
2018-12-08T20:18:29.558Z,97542.18
2018-12-08T20:20:58.655Z,97541.98
2018-12-08T20:23:27.784Z,97546.05
2018-12-08T20:25:56.857Z,97540.05
2018-12-08T20:28:25.949Z,97507.83
2018-12-08T20:30:55.089Z,97537.23
2018-12-08T20:33:24.279Z,97523.48
2018-12-08T20:35:53.410Z,97527.77
2018-12-08T20:38:22.578Z,97524.70
2018-12-08T20:40:51.591Z,97523.09
2018-12-08T20:43:20.617Z,97518.61
2018-12-08T20:45:49.699Z,97516.21
2018-12-08T20:48:18.799Z,97514.28
2018-12-08T20:50:47.877Z,97508.66
2018-12-08T20:53:17.038Z,97505.07
2018-12-08T20:55:46.202Z,97506.88
2018-12-08T20:58:15.281Z,97504.52
2018-12-08T21:00:44.457Z,97492.85
2018-12-08T21:03:14.713Z,97487.87
2018-12-08T21:05:43.797Z,97488.61
2018-12-08T21:08:12.965Z,97487.59
2018-12-08T21:10:42.541Z,97479.14
2018-12-08T21:13:11.517Z,97479.58
2018-12-08T21:15:40.635Z,97480.59
2018-12-08T21:18:10.105Z,97469.14
2018-12-08T21:20:39.331Z,97469.35
2018-12-08T21:23:08.557Z,97473.09
2018-12-08T21:25:37.677Z,97459.84
2018-12-08T21:28:06.703Z,97461.50
2018-12-08T21:30:36.197Z,97456.52
2018-12-08T21:33:05.542Z,97454.55
2018-12-08T21:35:34.835Z,97455.08
2018-12-08T21:38:04.176Z,97450.46
2018-12-08T21:40:33.535Z,97445.81
2018-12-08T21:43:02.557Z,97445.75
2018-12-08T21:45:32.172Z,97445.16
2018-12-08T21:48:01.319Z,97442.83
2018-12-08T21:50:30.373Z,97439.23
2018-12-08T21:53:00.019Z,97440.91
2018-12-08T21:55:29.023Z,97434.84
2018-12-08T21:57:58.033Z,97430.77
2018-12-08T22:00:27.497Z,97429.52
2018-12-08T22:02:56.677Z,97431.90
2018-12-08T22:05:25.873Z,97432.52
2018-12-08T22:07:54.910Z,97424.61
2018-12-08T22:10:23.920Z,97423.36
2018-12-08T22:12:52.961Z,97419.69
2018-12-08T22:15:22.093Z,97414.52
2018-12-08T22:17:51.298Z,97409.53
2018-12-08T22:20:21.123Z,97409.89
2018-12-08T22:22:50.674Z,97402.55
2018-12-08T22:25:19.861Z,97397.70
2018-12-08T22:27:49.081Z,97397.99
2018-12-08T22:30:18.202Z,97392.83
2018-12-08T22:32:48.293Z,97387.32
2018-12-08T22:35:17.385Z,97389.80
2018-12-08T22:37:46.510Z,97387.98
2018-12-08T22:40:16.143Z,97384.81
2018-12-08T22:42:45.293Z,97385.91
2018-12-08T22:45:14.890Z,97382.64
2018-12-08T22:47:43.989Z,97380.51
2018-12-08T22:50:13.293Z,97376.83
2018-12-08T22:52:42.333Z,97376.16
2018-12-08T22:55:11.569Z,97372.33
2018-12-08T22:57:40.651Z,97363.87
2018-12-08T23:00:18.385Z,97360.50
2018-12-08T23:02:51.523Z,97358.61
2018-12-08T23:05:20.762Z,97357.97
2018-12-08T23:07:50.862Z,97354.34
2018-12-08T23:10:20.090Z,97345.02
2018-12-08T23:12:49.329Z,97348.71
2018-12-08T23:15:18.373Z,97342.47
2018-12-08T23:17:47.435Z,97340.03
2018-12-08T23:20:16.969Z,97338.73
2018-12-08T23:22:46.261Z,97328.94
2018-12-08T23:25:16.261Z,97327.95
2018-12-08T23:27:45.993Z,97326.45
2018-12-08T23:30:15.181Z,97282.02
2018-12-08T23:32:44.270Z,97323.45
2018-12-08T23:35:13.313Z,97313.17
2018-12-08T23:37:42.366Z,97306.62
2018-12-08T23:40:11.500Z,97312.61
2018-12-08T23:42:41.074Z,97301.11
2018-12-08T23:45:10.161Z,97162.64
2018-12-08T23:47:39.258Z,97296.78
2018-12-08T23:50:10.027Z,97294.06
2018-12-08T23:52:39.037Z,97291.98
2018-12-08T23:55:09.006Z,97288.13
2018-12-08T23:57:39.134Z,97282.13
